sensor_id;sensor_type;location;lat;lon;timestamp;temperature;humidity
22442;DHT22;11388;54.456;9.752;2022-08-19T01:40:28;20.20;99.90
22442;DHT22;11388;54.456;9.752;2022-08-19T01:43:24;20.20;99.90
22442;DHT22;11388;54.456;9.752;2022-08-19T01:45:59;20.20;99.90
22442;DHT22;11388;54.456;9.752;2022-08-19T01:51:48;20.10;99.90
22442;DHT22;11388;54.456;9.752;2022-08-19T01:58:24;20.00;99.90
22442;DHT22;11388;54.456;9.752;2022-08-19T02:04:06;20.00;99.90
22442;DHT22;11388;54.456;9.752;2022-08-19T02:06:40;19.90;99.90
22442;DHT22;11388;54.456;9.752;2022-08-19T02:52:56;19.80;99.90
22442;DHT22;11388;54.456;9.752;2022-08-19T02:55:45;19.80;99.90
22442;DHT22;11388;54.456;9.752;2022-08-19T02:58:18;19.70;99.90
22442;DHT22;11388;54.456;9.752;2022-08-19T03:09:01;19.80;99.90
22442;DHT22;11388;54.456;9.752;2022-08-19T03:15:48;20.00;99.90
22442;DHT22;11388;54.456;9.752;2022-08-19T03:18:36;19.90;99.90
22442;DHT22;11388;54.456;9.752;2022-08-19T03:32:11;19.90;99.90
22442;DHT22;11388;54.456;9.752;2022-08-19T03:59:32;20.20;99.90
22442;DHT22;11388;54.456;9.752;2022-08-19T04:02:18;20.20;99.90
22442;DHT22;11388;54.456;9.752;2022-08-19T16:51:51;28.30;99.90
22442;DHT22;11388;54.456;9.752;2022-08-19T16:54:17;27.70;99.90
22442;DHT22;11388;54.456;9.752;2022-08-19T16:56:43;27.70;99.90
22442;DHT22;11388;54.456;9.752;2022-08-19T16:59:09;27.60;99.90
22442;DHT22;11388;54.456;9.752;2022-08-19T17:01:35;27.30;99.90
22442;DHT22;11388;54.456;9.752;2022-08-19T17:04:02;27.20;99.90
22442;DHT22;11388;54.456;9.752;2022-08-19T17:06:29;27.00;99.90
22442;DHT22;11388;54.456;9.752;2022-08-19T17:09:00;26.80;99.90
22442;DHT22;11388;54.456;9.752;2022-08-19T17:11:28;26.60;99.90
22442;DHT22;11388;54.456;9.752;2022-08-19T17:13:54;26.70;99.90
22442;DHT22;11388;54.456;9.752;2022-08-19T17:16:23;27.50;99.90
22442;DHT22;11388;54.456;9.752;2022-08-19T17:18:50;27.20;99.90
22442;DHT22;11388;54.456;9.752;2022-08-19T17:21:22;26.90;99.90
22442;DHT22;11388;54.456;9.752;2022-08-19T17:23:48;26.90;99.90
22442;DHT22;11388;54.456;9.752;2022-08-19T17:26:16;26.80;99.90
22442;DHT22;11388;54.456;9.752;2022-08-19T17:28:42;26.40;99.90
22442;DHT22;11388;54.456;9.752;2022-08-19T17:31:14;26.10;99.90
22442;DHT22;11388;54.456;9.752;2022-08-19T17:33:40;25.80;99.90
22442;DHT22;11388;54.456;9.752;2022-08-19T17:36:06;25.60;99.90
22442;DHT22;11388;54.456;9.752;2022-08-19T17:38:33;25.40;99.90
22442;DHT22;11388;54.456;9.752;2022-08-19T17:41:16;25.10;99.90
22442;DHT22;11388;54.456;9.752;2022-08-19T17:43:42;25.10;99.90
22442;DHT22;11388;54.456;9.752;2022-08-19T17:46:08;25.00;99.90
22442;DHT22;11388;54.456;9.752;2022-08-19T17:48:35;24.90;99.90
22442;DHT22;11388;54.456;9.752;2022-08-19T17:54:05;24.70;99.90
22442;DHT22;11388;54.456;9.752;2022-08-19T17:56:31;24.60;99.90
22442;DHT22;11388;54.456;9.752;2022-08-19T17:58:57;24.50;99.90
22442;DHT22;11388;54.456;9.752;2022-08-19T18:01:41;24.50;99.90
22442;DHT22;11388;54.456;9.752;2022-08-19T18:04:07;24.30;99.90
22442;DHT22;11388;54.456;9.752;2022-08-19T18:06:35;24.10;99.90
22442;DHT22;11388;54.456;9.752;2022-08-19T18:09:05;24.00;99.90
22442;DHT22;11388;54.456;9.752;2022-08-19T18:11:35;23.70;99.90
22442;DHT22;11388;54.456;9.752;2022-08-19T18:14:01;23.70;99.90
22442;DHT22;11388;54.456;9.752;2022-08-19T18:16:27;23.60;99.90
22442;DHT22;11388;54.456;9.752;2022-08-19T18:18:53;23.30;99.90
22442;DHT22;11388;54.456;9.752;2022-08-19T18:21:19;23.30;99.90
22442;DHT22;11388;54.456;9.752;2022-08-19T18:23:46;23.30;99.90
22442;DHT22;11388;54.456;9.752;2022-08-19T18:26:11;23.30;99.90
22442;DHT22;11388;54.456;9.752;2022-08-19T18:28:37;23.10;99.90
22442;DHT22;11388;54.456;9.752;2022-08-19T18:31:05;23.10;99.90
22442;DHT22;11388;54.456;9.752;2022-08-19T18:33:31;23.10;99.90
22442;DHT22;11388;54.456;9.752;2022-08-19T18:35:59;23.10;99.90
22442;DHT22;11388;54.456;9.752;2022-08-19T18:38:26;23.10;99.90
22442;DHT22;11388;54.456;9.752;2022-08-19T18:41:11;23.10;99.90
22442;DHT22;11388;54.456;9.752;2022-08-19T18:43:55;23.00;99.90
22442;DHT22;11388;54.456;9.752;2022-08-19T18:46:39;22.80;99.90
22442;DHT22;11388;54.456;9.752;2022-08-19T18:49:31;22.80;99.90
22442;DHT22;11388;54.456;9.752;2022-08-19T18:51:58;22.70;99.90
22442;DHT22;11388;54.456;9.752;2022-08-19T18:54:25;22.60;99.90
22442;DHT22;11388;54.456;9.752;2022-08-19T18:56:51;22.60;99.90
22442;DHT22;11388;54.456;9.752;2022-08-19T18:59:24;22.40;99.90
22442;DHT22;11388;54.456;9.752;2022-08-19T19:01:52;22.20;99.90
22442;DHT22;11388;54.456;9.752;2022-08-19T19:04:23;22.20;99.90
22442;DHT22;11388;54.456;9.752;2022-08-19T19:06:49;22.20;99.90
22442;DHT22;11388;54.456;9.752;2022-08-19T19:09:18;22.30;99.90
22442;DHT22;11388;54.456;9.752;2022-08-19T19:11:46;22.10;99.90
22442;DHT22;11388;54.456;9.752;2022-08-19T19:14:15;21.90;99.90
22442;DHT22;11388;54.456;9.752;2022-08-19T19:16:42;21.80;99.90
22442;DHT22;11388;54.456;9.752;2022-08-19T19:19:11;21.90;99.90
22442;DHT22;11388;54.456;9.752;2022-08-19T19:21:40;21.70;99.90
22442;DHT22;11388;54.456;9.752;2022-08-19T19:24:18;21.70;99.90
22442;DHT22;11388;54.456;9.752;2022-08-19T19:26:45;21.70;99.90
22442;DHT22;11388;54.456;9.752;2022-08-19T19:29:12;21.70;99.90
22442;DHT22;11388;54.456;9.752;2022-08-19T19:31:39;21.70;99.90
22442;DHT22;11388;54.456;9.752;2022-08-19T19:34:06;21.60;99.90
22442;DHT22;11388;54.456;9.752;2022-08-19T19:36:31;21.50;99.90
22442;DHT22;11388;54.456;9.752;2022-08-19T19:38:57;21.40;99.90
22442;DHT22;11388;54.456;9.752;2022-08-19T19:41:23;21.30;99.90
22442;DHT22;11388;54.456;9.752;2022-08-19T19:43:51;21.20;99.90
22442;DHT22;11388;54.456;9.752;2022-08-19T19:46:17;21.20;99.90
22442;DHT22;11388;54.456;9.752;2022-08-19T19:48:44;21.20;99.90
22442;DHT22;11388;54.456;9.752;2022-08-19T19:51:11;21.20;99.90
22442;DHT22;11388;54.456;9.752;2022-08-19T19:53:37;21.10;99.90
22442;DHT22;11388;54.456;9.752;2022-08-19T19:56:03;20.90;99.90
22442;DHT22;11388;54.456;9.752;2022-08-19T19:58:30;20.90;99.90
22442;DHT22;11388;54.456;9.752;2022-08-19T20:00:57;20.80;99.90
22442;DHT22;11388;54.456;9.752;2022-08-19T20:03:24;20.80;99.90
22442;DHT22;11388;54.456;9.752;2022-08-19T20:05:50;20.80;99.90
22442;DHT22;11388;54.456;9.752;2022-08-19T20:08:17;20.80;99.90
22442;DHT22;11388;54.456;9.752;2022-08-19T20:11:04;20.80;99.90
22442;DHT22;11388;54.456;9.752;2022-08-19T20:13:30;20.80;99.90
22442;DHT22;11388;54.456;9.752;2022-08-19T20:15:56;20.70;99.90
22442;DHT22;11388;54.456;9.752;2022-08-19T20:18:22;20.70;99.90
22442;DHT22;11388;54.456;9.752;2022-08-19T20:20:49;20.60;99.90
22442;DHT22;11388;54.456;9.752;2022-08-19T20:23:20;20.60;99.90
22442;DHT22;11388;54.456;9.752;2022-08-19T20:25:46;20.50;99.90
22442;DHT22;11388;54.456;9.752;2022-08-19T20:28:12;20.50;99.90
22442;DHT22;11388;54.456;9.752;2022-08-19T20:30:39;20.40;99.90
22442;DHT22;11388;54.456;9.752;2022-08-19T20:33:06;20.40;99.90
22442;DHT22;11388;54.456;9.752;2022-08-19T20:35:34;20.40;99.90
22442;DHT22;11388;54.456;9.752;2022-08-19T20:37:59;20.20;99.90
22442;DHT22;11388;54.456;9.752;2022-08-19T20:40:27;20.10;99.90
22442;DHT22;11388;54.456;9.752;2022-08-19T20:42:53;20.00;99.90
22442;DHT22;11388;54.456;9.752;2022-08-19T20:45:21;20.10;99.90
22442;DHT22;11388;54.456;9.752;2022-08-19T20:47:47;20.10;99.90
22442;DHT22;11388;54.456;9.752;2022-08-19T20:50:14;20.00;99.90
22442;DHT22;11388;54.456;9.752;2022-08-19T20:52:41;20.00;99.90
22442;DHT22;11388;54.456;9.752;2022-08-19T20:55:08;20.10;99.90
22442;DHT22;11388;54.456;9.752;2022-08-19T20:57:35;19.90;99.90
22442;DHT22;11388;54.456;9.752;2022-08-19T21:00:01;19.90;99.90
22442;DHT22;11388;54.456;9.752;2022-08-19T21:02:30;19.90;99.90
22442;DHT22;11388;54.456;9.752;2022-08-19T21:04:55;19.90;99.90
22442;DHT22;11388;54.456;9.752;2022-08-19T21:07:21;19.80;99.90
22442;DHT22;11388;54.456;9.752;2022-08-19T21:09:47;19.80;99.90
22442;DHT22;11388;54.456;9.752;2022-08-19T21:12:13;19.80;99.90
22442;DHT22;11388;54.456;9.752;2022-08-19T21:14:41;19.80;99.90
22442;DHT22;11388;54.456;9.752;2022-08-19T21:17:08;19.80;99.90
22442;DHT22;11388;54.456;9.752;2022-08-19T21:19:34;19.80;99.90
22442;DHT22;11388;54.456;9.752;2022-08-19T21:22:00;19.70;99.90
22442;DHT22;11388;54.456;9.752;2022-08-19T21:24:27;19.70;99.90
22442;DHT22;11388;54.456;9.752;2022-08-19T21:26:53;19.70;99.90
22442;DHT22;11388;54.456;9.752;2022-08-19T21:29:19;19.70;99.90
22442;DHT22;11388;54.456;9.752;2022-08-19T21:31:44;19.60;99.90
22442;DHT22;11388;54.456;9.752;2022-08-19T21:34:11;19.60;99.90
22442;DHT22;11388;54.456;9.752;2022-08-19T21:36:36;19.60;99.90
22442;DHT22;11388;54.456;9.752;2022-08-19T21:39:03;19.60;99.90
22442;DHT22;11388;54.456;9.752;2022-08-19T21:41:29;19.60;99.90
22442;DHT22;11388;54.456;9.752;2022-08-19T21:43:55;19.60;99.90
22442;DHT22;11388;54.456;9.752;2022-08-19T21:46:21;19.30;99.90
22442;DHT22;11388;54.456;9.752;2022-08-19T21:48:47;19.40;99.90
22442;DHT22;11388;54.456;9.752;2022-08-19T21:51:13;19.40;99.90
22442;DHT22;11388;54.456;9.752;2022-08-19T21:53:39;19.40;99.90
22442;DHT22;11388;54.456;9.752;2022-08-19T21:56:05;19.40;99.90
22442;DHT22;11388;54.456;9.752;2022-08-19T21:58:31;19.40;99.90
22442;DHT22;11388;54.456;9.752;2022-08-19T22:01:01;19.40;99.90
22442;DHT22;11388;54.456;9.752;2022-08-19T22:03:30;19.30;99.90
22442;DHT22;11388;54.456;9.752;2022-08-19T22:05:56;19.30;99.90
22442;DHT22;11388;54.456;9.752;2022-08-19T22:08:23;19.30;99.90
22442;DHT22;11388;54.456;9.752;2022-08-19T22:10:49;19.20;99.90
22442;DHT22;11388;54.456;9.752;2022-08-19T22:13:16;19.20;99.90
22442;DHT22;11388;54.456;9.752;2022-08-19T22:15:43;19.30;99.90
22442;DHT22;11388;54.456;9.752;2022-08-19T22:18:09;19.10;99.90
22442;DHT22;11388;54.456;9.752;2022-08-19T22:20:35;19.20;99.90
22442;DHT22;11388;54.456;9.752;2022-08-19T22:23:03;19.10;99.90
22442;DHT22;11388;54.456;9.752;2022-08-19T22:25:36;19.20;99.90
22442;DHT22;11388;54.456;9.752;2022-08-19T22:28:07;19.20;99.90
22442;DHT22;11388;54.456;9.752;2022-08-19T22:30:34;19.20;99.90
22442;DHT22;11388;54.456;9.752;2022-08-19T22:33:04;19.20;99.90
22442;DHT22;11388;54.456;9.752;2022-08-19T22:35:32;19.10;99.90
22442;DHT22;11388;54.456;9.752;2022-08-19T22:37:59;19.10;99.90
22442;DHT22;11388;54.456;9.752;2022-08-19T22:40:26;19.10;99.90
22442;DHT22;11388;54.456;9.752;2022-08-19T22:43:00;19.10;99.90
22442;DHT22;11388;54.456;9.752;2022-08-19T22:45:28;19.10;99.90
22442;DHT22;11388;54.456;9.752;2022-08-19T22:47:55;19.10;99.90
22442;DHT22;11388;54.456;9.752;2022-08-19T22:50:22;19.10;99.90
22442;DHT22;11388;54.456;9.752;2022-08-19T22:52:47;19.10;99.90
22442;DHT22;11388;54.456;9.752;2022-08-19T22:55:13;19.10;99.90
22442;DHT22;11388;54.456;9.752;2022-08-19T22:57:39;19.10;99.90
22442;DHT22;11388;54.456;9.752;2022-08-19T23:00:06;19.10;99.90
22442;DHT22;11388;54.456;9.752;2022-08-19T23:02:36;19.10;99.90
22442;DHT22;11388;54.456;9.752;2022-08-19T23:05:05;19.20;99.90
22442;DHT22;11388;54.456;9.752;2022-08-19T23:07:32;19.20;99.90
22442;DHT22;11388;54.456;9.752;2022-08-19T23:09:58;19.10;99.90
22442;DHT22;11388;54.456;9.752;2022-08-19T23:12:26;19.10;99.90
22442;DHT22;11388;54.456;9.752;2022-08-19T23:14:53;19.10;99.90
22442;DHT22;11388;54.456;9.752;2022-08-19T23:17:18;19.20;99.90
22442;DHT22;11388;54.456;9.752;2022-08-19T23:19:44;19.20;99.90
22442;DHT22;11388;54.456;9.752;2022-08-19T23:22:10;19.20;99.90
22442;DHT22;11388;54.456;9.752;2022-08-19T23:24:39;19.20;99.90
22442;DHT22;11388;54.456;9.752;2022-08-19T23:27:05;19.20;99.90
22442;DHT22;11388;54.456;9.752;2022-08-19T23:29:49;19.20;99.90
22442;DHT22;11388;54.456;9.752;2022-08-19T23:32:34;19.20;99.90
22442;DHT22;11388;54.456;9.752;2022-08-19T23:34:59;19.20;99.90
22442;DHT22;11388;54.456;9.752;2022-08-19T23:37:25;19.20;99.90
22442;DHT22;11388;54.456;9.752;2022-08-19T23:39:51;19.10;99.90
22442;DHT22;11388;54.456;9.752;2022-08-19T23:42:16;19.10;99.90
22442;DHT22;11388;54.456;9.752;2022-08-19T23:44:42;19.10;99.90
22442;DHT22;11388;54.456;9.752;2022-08-19T23:47:08;19.10;99.90
22442;DHT22;11388;54.456;9.752;2022-08-19T23:49:34;19.10;99.90
22442;DHT22;11388;54.456;9.752;2022-08-19T23:52:00;19.10;99.90
22442;DHT22;11388;54.456;9.752;2022-08-19T23:54:26;19.10;99.90
22442;DHT22;11388;54.456;9.752;2022-08-19T23:56:53;19.00;99.90
22442;DHT22;11388;54.456;9.752;2022-08-19T23:59:19;19.00;99.90
